sensor_id;sensor_type;location;lat;lon;timestamp;temperature;humidity
34492;DHT22;20737;49.908;8.126;2022-10-31T00:01:58;9.20;99.90
34492;DHT22;20737;49.908;8.126;2022-10-31T00:04:25;9.20;99.90
34492;DHT22;20737;49.908;8.126;2022-10-31T00:06:53;9.10;99.90
34492;DHT22;20737;49.908;8.126;2022-10-31T00:09:20;9.10;99.90
34492;DHT22;20737;49.908;8.126;2022-10-31T00:11:47;9.10;99.90
34492;DHT22;20737;49.908;8.126;2022-10-31T00:14:13;9.10;99.90
34492;DHT22;20737;49.908;8.126;2022-10-31T00:16:40;9.10;99.90
34492;DHT22;20737;49.908;8.126;2022-10-31T00:19:07;9.10;99.90
34492;DHT22;20737;49.908;8.126;2022-10-31T00:21:34;9.10;99.90
34492;DHT22;20737;49.908;8.126;2022-10-31T00:24:03;9.00;99.90
34492;DHT22;20737;49.908;8.126;2022-10-31T00:26:31;9.00;99.90
34492;DHT22;20737;49.908;8.126;2022-10-31T00:28:58;9.00;99.90
34492;DHT22;20737;49.908;8.126;2022-10-31T00:31:25;9.00;99.90
34492;DHT22;20737;49.908;8.126;2022-10-31T00:33:52;8.90;99.90
34492;DHT22;20737;49.908;8.126;2022-10-31T00:36:19;8.90;99.90
34492;DHT22;20737;49.908;8.126;2022-10-31T00:38:47;8.90;99.90
34492;DHT22;20737;49.908;8.126;2022-10-31T00:41:17;8.90;99.90
34492;DHT22;20737;49.908;8.126;2022-10-31T00:43:44;8.90;99.90
34492;DHT22;20737;49.908;8.126;2022-10-31T00:46:12;8.90;99.90
34492;DHT22;20737;49.908;8.126;2022-10-31T00:48:39;8.90;99.90
34492;DHT22;20737;49.908;8.126;2022-10-31T00:51:05;8.90;99.90
34492;DHT22;20737;49.908;8.126;2022-10-31T00:53:32;8.90;99.90
34492;DHT22;20737;49.908;8.126;2022-10-31T00:55:59;8.90;99.90
34492;DHT22;20737;49.908;8.126;2022-10-31T00:58:27;8.90;99.90
34492;DHT22;20737;49.908;8.126;2022-10-31T01:00:54;8.80;99.90
34492;DHT22;20737;49.908;8.126;2022-10-31T01:03:22;8.80;99.90
34492;DHT22;20737;49.908;8.126;2022-10-31T01:05:59;8.80;99.90
34492;DHT22;20737;49.908;8.126;2022-10-31T01:08:26;8.80;99.90
34492;DHT22;20737;49.908;8.126;2022-10-31T01:11:06;8.90;99.90
34492;DHT22;20737;49.908;8.126;2022-10-31T01:13:35;8.90;99.90
34492;DHT22;20737;49.908;8.126;2022-10-31T01:16:03;8.90;99.90
34492;DHT22;20737;49.908;8.126;2022-10-31T01:18:30;8.90;99.90
34492;DHT22;20737;49.908;8.126;2022-10-31T01:20:59;8.80;99.90
34492;DHT22;20737;49.908;8.126;2022-10-31T01:23:26;8.80;99.90
34492;DHT22;20737;49.908;8.126;2022-10-31T01:26:01;8.80;99.90
34492;DHT22;20737;49.908;8.126;2022-10-31T01:28:29;8.80;99.90
34492;DHT22;20737;49.908;8.126;2022-10-31T01:31:00;8.80;99.90
34492;DHT22;20737;49.908;8.126;2022-10-31T01:33:26;8.80;99.90
34492;DHT22;20737;49.908;8.126;2022-10-31T01:35:53;8.80;99.90
34492;DHT22;20737;49.908;8.126;2022-10-31T01:38:20;8.80;99.90
34492;DHT22;20737;49.908;8.126;2022-10-31T01:40:47;8.80;99.90
34492;DHT22;20737;49.908;8.126;2022-10-31T01:43:14;8.80;99.90
34492;DHT22;20737;49.908;8.126;2022-10-31T01:45:42;8.80;99.90
34492;DHT22;20737;49.908;8.126;2022-10-31T01:48:14;8.70;99.90
34492;DHT22;20737;49.908;8.126;2022-10-31T01:50:43;8.70;99.90
34492;DHT22;20737;49.908;8.126;2022-10-31T01:53:12;8.80;99.90
34492;DHT22;20737;49.908;8.126;2022-10-31T01:55:41;8.80;99.90
34492;DHT22;20737;49.908;8.126;2022-10-31T01:58:11;8.80;99.90
34492;DHT22;20737;49.908;8.126;2022-10-31T02:00:39;8.80;99.90
34492;DHT22;20737;49.908;8.126;2022-10-31T02:03:07;8.80;99.90
34492;DHT22;20737;49.908;8.126;2022-10-31T02:05:35;8.80;99.90
34492;DHT22;20737;49.908;8.126;2022-10-31T02:08:06;8.80;99.90
34492;DHT22;20737;49.908;8.126;2022-10-31T02:10:36;8.80;99.90
34492;DHT22;20737;49.908;8.126;2022-10-31T02:13:06;8.80;99.90
34492;DHT22;20737;49.908;8.126;2022-10-31T02:15:35;8.80;99.90
34492;DHT22;20737;49.908;8.126;2022-10-31T02:18:03;8.80;99.90
34492;DHT22;20737;49.908;8.126;2022-10-31T02:20:32;8.70;99.90
34492;DHT22;20737;49.908;8.126;2022-10-31T02:23:39;8.80;99.90
34492;DHT22;20737;49.908;8.126;2022-10-31T02:32:33;8.80;99.90
34492;DHT22;20737;49.908;8.126;2022-10-31T02:35:08;8.80;99.90
34492;DHT22;20737;49.908;8.126;2022-10-31T02:37:37;8.70;99.90
34492;DHT22;20737;49.908;8.126;2022-10-31T02:40:10;8.70;99.90
34492;DHT22;20737;49.908;8.126;2022-10-31T02:42:43;8.70;99.90
34492;DHT22;20737;49.908;8.126;2022-10-31T02:45:17;8.70;99.90
34492;DHT22;20737;49.908;8.126;2022-10-31T02:47:50;8.70;99.90
34492;DHT22;20737;49.908;8.126;2022-10-31T02:50:21;8.60;99.90
34492;DHT22;20737;49.908;8.126;2022-10-31T02:52:50;8.60;99.90
34492;DHT22;20737;49.908;8.126;2022-10-31T02:55:47;8.60;99.90
34492;DHT22;20737;49.908;8.126;2022-10-31T02:58:16;8.60;99.90
34492;DHT22;20737;49.908;8.126;2022-10-31T03:00:52;8.60;99.90
34492;DHT22;20737;49.908;8.126;2022-10-31T03:03:32;8.60;99.90
34492;DHT22;20737;49.908;8.126;2022-10-31T03:06:02;8.60;99.90
34492;DHT22;20737;49.908;8.126;2022-10-31T03:08:35;8.70;99.90
34492;DHT22;20737;49.908;8.126;2022-10-31T03:11:07;8.70;99.90
34492;DHT22;20737;49.908;8.126;2022-10-31T03:13:38;8.70;99.90
34492;DHT22;20737;49.908;8.126;2022-10-31T03:16:10;8.60;99.90
34492;DHT22;20737;49.908;8.126;2022-10-31T03:18:46;8.70;99.90
34492;DHT22;20737;49.908;8.126;2022-10-31T03:21:16;8.70;99.90
34492;DHT22;20737;49.908;8.126;2022-10-31T03:23:46;8.70;99.90
34492;DHT22;20737;49.908;8.126;2022-10-31T03:26:14;8.70;99.90
34492;DHT22;20737;49.908;8.126;2022-10-31T03:28:46;8.70;99.90
34492;DHT22;20737;49.908;8.126;2022-10-31T03:31:17;8.60;99.90
34492;DHT22;20737;49.908;8.126;2022-10-31T03:33:47;8.60;99.90
34492;DHT22;20737;49.908;8.126;2022-10-31T03:36:15;8.60;99.90
34492;DHT22;20737;49.908;8.126;2022-10-31T03:38:44;8.50;99.90
34492;DHT22;20737;49.908;8.126;2022-10-31T03:41:16;8.50;99.90
34492;DHT22;20737;49.908;8.126;2022-10-31T03:43:51;8.50;99.90
34492;DHT22;20737;49.908;8.126;2022-10-31T03:46:18;8.40;99.90
34492;DHT22;20737;49.908;8.126;2022-10-31T03:48:47;8.40;99.90
34492;DHT22;20737;49.908;8.126;2022-10-31T03:51:16;8.40;99.90
34492;DHT22;20737;49.908;8.126;2022-10-31T03:53:54;8.40;99.90
34492;DHT22;20737;49.908;8.126;2022-10-31T03:56:29;8.40;99.90
34492;DHT22;20737;49.908;8.126;2022-10-31T03:59:02;8.40;99.90
34492;DHT22;20737;49.908;8.126;2022-10-31T04:01:32;8.40;99.90
34492;DHT22;20737;49.908;8.126;2022-10-31T04:04:02;8.40;99.90
34492;DHT22;20737;49.908;8.126;2022-10-31T04:06:30;8.30;99.90
34492;DHT22;20737;49.908;8.126;2022-10-31T04:09:01;8.40;99.90
34492;DHT22;20737;49.908;8.126;2022-10-31T04:11:33;8.30;99.90
34492;DHT22;20737;49.908;8.126;2022-10-31T04:14:01;8.30;99.90
34492;DHT22;20737;49.908;8.126;2022-10-31T04:16:28;8.30;99.90
34492;DHT22;20737;49.908;8.126;2022-10-31T04:18:55;8.30;99.90
34492;DHT22;20737;49.908;8.126;2022-10-31T04:21:28;8.20;99.90
34492;DHT22;20737;49.908;8.126;2022-10-31T04:23:56;8.20;99.90
34492;DHT22;20737;49.908;8.126;2022-10-31T04:26:23;8.20;99.90
34492;DHT22;20737;49.908;8.126;2022-10-31T04:28:49;8.20;99.90
34492;DHT22;20737;49.908;8.126;2022-10-31T04:31:16;8.20;99.90
34492;DHT22;20737;49.908;8.126;2022-10-31T04:33:43;8.20;99.90
34492;DHT22;20737;49.908;8.126;2022-10-31T04:36:10;8.10;99.90
34492;DHT22;20737;49.908;8.126;2022-10-31T04:38:38;8.10;99.90
34492;DHT22;20737;49.908;8.126;2022-10-31T04:41:05;8.10;99.90
34492;DHT22;20737;49.908;8.126;2022-10-31T04:43:31;8.10;99.90
34492;DHT22;20737;49.908;8.126;2022-10-31T04:45:58;8.10;99.90
34492;DHT22;20737;49.908;8.126;2022-10-31T04:48:25;8.10;99.90
34492;DHT22;20737;49.908;8.126;2022-10-31T04:50:52;8.10;99.90
34492;DHT22;20737;49.908;8.126;2022-10-31T04:53:18;8.00;99.90
34492;DHT22;20737;49.908;8.126;2022-10-31T04:55:46;8.10;99.90
34492;DHT22;20737;49.908;8.126;2022-10-31T04:58:13;8.10;99.90
34492;DHT22;20737;49.908;8.126;2022-10-31T05:00:40;8.10;99.90
34492;DHT22;20737;49.908;8.126;2022-10-31T05:03:06;8.10;99.90
34492;DHT22;20737;49.908;8.126;2022-10-31T05:05:33;8.10;99.90
34492;DHT22;20737;49.908;8.126;2022-10-31T05:08:00;8.10;99.90
34492;DHT22;20737;49.908;8.126;2022-10-31T05:10:29;8.10;99.90
34492;DHT22;20737;49.908;8.126;2022-10-31T05:12:59;8.10;99.90
34492;DHT22;20737;49.908;8.126;2022-10-31T05:15:26;8.20;99.90
34492;DHT22;20737;49.908;8.126;2022-10-31T05:17:54;8.20;99.90
34492;DHT22;20737;49.908;8.126;2022-10-31T05:20:23;8.20;99.90
34492;DHT22;20737;49.908;8.126;2022-10-31T05:22:52;8.20;99.90
34492;DHT22;20737;49.908;8.126;2022-10-31T05:25:20;8.30;99.90
34492;DHT22;20737;49.908;8.126;2022-10-31T05:27:50;8.30;99.90
34492;DHT22;20737;49.908;8.126;2022-10-31T05:30:21;8.30;99.90
34492;DHT22;20737;49.908;8.126;2022-10-31T05:32:49;8.30;99.90
34492;DHT22;20737;49.908;8.126;2022-10-31T05:35:19;8.30;99.90
34492;DHT22;20737;49.908;8.126;2022-10-31T05:37:46;8.30;99.90
34492;DHT22;20737;49.908;8.126;2022-10-31T05:40:14;8.30;99.90
34492;DHT22;20737;49.908;8.126;2022-10-31T05:42:42;8.30;99.90
34492;DHT22;20737;49.908;8.126;2022-10-31T05:45:10;8.30;99.90
34492;DHT22;20737;49.908;8.126;2022-10-31T05:47:39;8.30;99.90
34492;DHT22;20737;49.908;8.126;2022-10-31T05:50:07;8.30;99.90
34492;DHT22;20737;49.908;8.126;2022-10-31T05:52:34;8.30;99.90
34492;DHT22;20737;49.908;8.126;2022-10-31T05:55:01;8.30;99.90
34492;DHT22;20737;49.908;8.126;2022-10-31T05:57:28;8.20;99.90
34492;DHT22;20737;49.908;8.126;2022-10-31T05:59:55;8.30;99.90
34492;DHT22;20737;49.908;8.126;2022-10-31T06:02:21;8.30;99.90
34492;DHT22;20737;49.908;8.126;2022-10-31T06:04:49;8.30;99.90
34492;DHT22;20737;49.908;8.126;2022-10-31T06:07:16;8.40;99.90
34492;DHT22;20737;49.908;8.126;2022-10-31T06:09:43;8.40;99.90
34492;DHT22;20737;49.908;8.126;2022-10-31T06:12:09;8.40;99.90
34492;DHT22;20737;49.908;8.126;2022-10-31T06:14:36;8.40;99.90
34492;DHT22;20737;49.908;8.126;2022-10-31T06:17:03;8.40;99.90
34492;DHT22;20737;49.908;8.126;2022-10-31T06:19:29;8.50;99.90
34492;DHT22;20737;49.908;8.126;2022-10-31T06:21:58;8.50;99.90
34492;DHT22;20737;49.908;8.126;2022-10-31T06:24:24;8.50;99.90
34492;DHT22;20737;49.908;8.126;2022-10-31T06:26:51;8.60;99.90
34492;DHT22;20737;49.908;8.126;2022-10-31T06:29:18;8.60;99.90
34492;DHT22;20737;49.908;8.126;2022-10-31T06:31:44;8.60;99.90
34492;DHT22;20737;49.908;8.126;2022-10-31T06:34:11;8.70;99.90
34492;DHT22;20737;49.908;8.126;2022-10-31T06:36:38;8.70;99.90
34492;DHT22;20737;49.908;8.126;2022-10-31T06:39:06;8.80;99.90
34492;DHT22;20737;49.908;8.126;2022-10-31T06:41:33;8.90;99.90
34492;DHT22;20737;49.908;8.126;2022-10-31T06:44:02;8.90;99.90
34492;DHT22;20737;49.908;8.126;2022-10-31T06:46:28;9.00;99.90
34492;DHT22;20737;49.908;8.126;2022-10-31T06:48:55;9.10;99.90
34492;DHT22;20737;49.908;8.126;2022-10-31T06:51:22;9.20;99.90
34492;DHT22;20737;49.908;8.126;2022-10-31T06:53:49;9.30;99.90
34492;DHT22;20737;49.908;8.126;2022-10-31T06:56:17;9.50;99.90
34492;DHT22;20737;49.908;8.126;2022-10-31T06:58:43;9.50;99.90
34492;DHT22;20737;49.908;8.126;2022-10-31T07:01:10;9.60;99.90
34492;DHT22;20737;49.908;8.126;2022-10-31T07:03:37;9.80;99.90
34492;DHT22;20737;49.908;8.126;2022-10-31T07:06:04;9.90;99.90
34492;DHT22;20737;49.908;8.126;2022-10-31T07:08:30;10.00;99.90
34492;DHT22;20737;49.908;8.126;2022-10-31T07:10:57;10.10;99.90
34492;DHT22;20737;49.908;8.126;2022-10-31T07:13:25;10.30;99.90
34492;DHT22;20737;49.908;8.126;2022-10-31T07:15:53;10.50;99.90
34492;DHT22;20737;49.908;8.126;2022-10-31T07:18:21;10.80;99.90
34492;DHT22;20737;49.908;8.126;2022-10-31T07:20:48;10.90;99.90
34492;DHT22;20737;49.908;8.126;2022-10-31T07:23:15;11.10;99.90
34492;DHT22;20737;49.908;8.126;2022-10-31T07:25:42;11.30;99.90
34492;DHT22;20737;49.908;8.126;2022-10-31T07:28:09;11.50;99.90
34492;DHT22;20737;49.908;8.126;2022-10-31T07:30:37;11.70;99.90
34492;DHT22;20737;49.908;8.126;2022-10-31T07:33:04;12.00;99.90
34492;DHT22;20737;49.908;8.126;2022-10-31T07:35:32;12.30;99.90
34492;DHT22;20737;49.908;8.126;2022-10-31T07:38:07;12.80;99.90
34492;DHT22;20737;49.908;8.126;2022-10-31T07:40:34;13.00;99.90
34492;DHT22;20737;49.908;8.126;2022-10-31T07:43:01;13.10;99.90
34492;DHT22;20737;49.908;8.126;2022-10-31T07:45:27;13.30;99.90
34492;DHT22;20737;49.908;8.126;2022-10-31T07:47:55;13.50;99.90
34492;DHT22;20737;49.908;8.126;2022-10-31T07:52:58;14.10;99.90
34492;DHT22;20737;49.908;8.126;2022-10-31T07:55:25;14.50;99.90
34492;DHT22;20737;49.908;8.126;2022-10-31T07:57:56;14.70;99.90
34492;DHT22;20737;49.908;8.126;2022-10-31T08:00:23;14.80;99.90
34492;DHT22;20737;49.908;8.126;2022-10-31T08:02:58;15.20;99.90
34492;DHT22;20737;49.908;8.126;2022-10-31T08:05:25;15.60;99.90
34492;DHT22;20737;49.908;8.126;2022-10-31T08:07:52;16.20;99.90
34492;DHT22;20737;49.908;8.126;2022-10-31T08:10:19;17.00;99.90
34492;DHT22;20737;49.908;8.126;2022-10-31T08:12:46;17.70;99.90
34492;DHT22;20737;49.908;8.126;2022-10-31T08:15:13;18.30;99.90
34492;DHT22;20737;49.908;8.126;2022-10-31T08:17:40;18.80;99.90
34492;DHT22;20737;49.908;8.126;2022-10-31T08:20:09;19.40;99.90
34492;DHT22;20737;49.908;8.126;2022-10-31T08:22:36;19.60;99.90
34492;DHT22;20737;49.908;8.126;2022-10-31T08:25:03;19.50;99.90
34492;DHT22;20737;49.908;8.126;2022-10-31T08:27:29;19.10;99.90
34492;DHT22;20737;49.908;8.126;2022-10-31T08:29:56;18.30;99.90
34492;DHT22;20737;49.908;8.126;2022-10-31T08:32:23;17.50;99.90
34492;DHT22;20737;49.908;8.126;2022-10-31T08:34:50;16.80;99.90
34492;DHT22;20737;49.908;8.126;2022-10-31T08:37:18;16.40;99.90
34492;DHT22;20737;49.908;8.126;2022-10-31T08:39:45;16.20;99.90
34492;DHT22;20737;49.908;8.126;2022-10-31T08:42:12;16.00;99.90
34492;DHT22;20737;49.908;8.126;2022-10-31T08:44:39;16.00;99.90
34492;DHT22;20737;49.908;8.126;2022-10-31T08:47:06;16.10;99.90
34492;DHT22;20737;49.908;8.126;2022-10-31T08:49:32;16.20;99.90
34492;DHT22;20737;49.908;8.126;2022-10-31T08:51:59;16.30;99.90
34492;DHT22;20737;49.908;8.126;2022-10-31T08:54:27;16.30;99.90
34492;DHT22;20737;49.908;8.126;2022-10-31T08:56:54;16.40;99.90
34492;DHT22;20737;49.908;8.126;2022-10-31T08:59:22;16.40;99.90
34492;DHT22;20737;49.908;8.126;2022-10-31T09:01:48;16.20;99.90
34492;DHT22;20737;49.908;8.126;2022-10-31T09:04:15;16.10;99.90
34492;DHT22;20737;49.908;8.126;2022-10-31T09:06:42;16.20;99.90
34492;DHT22;20737;49.908;8.126;2022-10-31T09:09:09;16.20;99.90
34492;DHT22;20737;49.908;8.126;2022-10-31T09:11:37;16.20;99.90
34492;DHT22;20737;49.908;8.126;2022-10-31T09:14:03;16.40;99.90
34492;DHT22;20737;49.908;8.126;2022-10-31T09:16:30;16.50;99.90
34492;DHT22;20737;49.908;8.126;2022-10-31T09:18:57;16.40;99.90
34492;DHT22;20737;49.908;8.126;2022-10-31T09:21:24;16.60;99.90
34492;DHT22;20737;49.908;8.126;2022-10-31T09:23:50;16.90;99.90
34492;DHT22;20737;49.908;8.126;2022-10-31T09:26:19;17.10;99.90
34492;DHT22;20737;49.908;8.126;2022-10-31T09:28:47;17.40;99.90
34492;DHT22;20737;49.908;8.126;2022-10-31T09:31:14;17.50;99.90
34492;DHT22;20737;49.908;8.126;2022-10-31T09:33:40;17.70;99.90
34492;DHT22;20737;49.908;8.126;2022-10-31T09:36:07;17.80;99.90
34492;DHT22;20737;49.908;8.126;2022-10-31T09:38:34;18.00;99.90
34492;DHT22;20737;49.908;8.126;2022-10-31T09:41:08;18.10;99.90
34492;DHT22;20737;49.908;8.126;2022-10-31T09:43:50;18.20;99.90
34492;DHT22;20737;49.908;8.126;2022-10-31T09:46:26;18.40;99.90
34492;DHT22;20737;49.908;8.126;2022-10-31T09:49:28;18.50;99.90
34492;DHT22;20737;49.908;8.126;2022-10-31T09:52:01;18.70;99.90
34492;DHT22;20737;49.908;8.126;2022-10-31T09:54:34;18.70;99.90
34492;DHT22;20737;49.908;8.126;2022-10-31T09:57:05;18.80;99.90
34492;DHT22;20737;49.908;8.126;2022-10-31T09:59:38;19.00;99.90
34492;DHT22;20737;49.908;8.126;2022-10-31T10:02:13;19.00;99.90
34492;DHT22;20737;49.908;8.126;2022-10-31T10:04:44;19.30;99.90
34492;DHT22;20737;49.908;8.126;2022-10-31T10:07:19;19.10;99.90
34492;DHT22;20737;49.908;8.126;2022-10-31T10:09:48;19.10;99.90
34492;DHT22;20737;49.908;8.126;2022-10-31T10:12:19;19.10;99.90
34492;DHT22;20737;49.908;8.126;2022-10-31T10:15:26;19.20;99.90
34492;DHT22;20737;49.908;8.126;2022-10-31T10:18:02;19.30;99.90
34492;DHT22;20737;49.908;8.126;2022-10-31T10:20:35;19.20;99.90
34492;DHT22;20737;49.908;8.126;2022-10-31T10:23:21;19.40;99.90
34492;DHT22;20737;49.908;8.126;2022-10-31T10:25:54;19.60;99.90
34492;DHT22;20737;49.908;8.126;2022-10-31T10:28:30;19.70;99.90
34492;DHT22;20737;49.908;8.126;2022-10-31T10:31:09;19.80;99.90
34492;DHT22;20737;49.908;8.126;2022-10-31T10:33:38;19.90;99.90
34492;DHT22;20737;49.908;8.126;2022-10-31T10:36:10;20.10;99.90
34492;DHT22;20737;49.908;8.126;2022-10-31T10:38:48;20.40;99.90
34492;DHT22;20737;49.908;8.126;2022-10-31T10:41:18;20.80;99.90
34492;DHT22;20737;49.908;8.126;2022-10-31T10:43:45;21.30;99.90
34492;DHT22;20737;49.908;8.126;2022-10-31T10:46:23;21.60;99.90
34492;DHT22;20737;49.908;8.126;2022-10-31T10:49:18;22.40;99.90
34492;DHT22;20737;49.908;8.126;2022-10-31T10:51:47;23.00;99.90
34492;DHT22;20737;49.908;8.126;2022-10-31T10:54:50;23.20;99.90
34492;DHT22;20737;49.908;8.126;2022-10-31T10:57:38;23.40;99.90
34492;DHT22;20737;49.908;8.126;2022-10-31T11:00:18;23.60;99.90
34492;DHT22;20737;49.908;8.126;2022-10-31T11:02:46;23.40;99.90
34492;DHT22;20737;49.908;8.126;2022-10-31T11:05:20;23.50;99.90
34492;DHT22;20737;49.908;8.126;2022-10-31T11:07:48;23.60;99.90
34492;DHT22;20737;49.908;8.126;2022-10-31T11:10:15;23.10;99.90
34492;DHT22;20737;49.908;8.126;2022-10-31T11:12:44;22.90;99.90
34492;DHT22;20737;49.908;8.126;2022-10-31T11:15:18;22.80;99.90
34492;DHT22;20737;49.908;8.126;2022-10-31T11:17:49;22.60;99.90
34492;DHT22;20737;49.908;8.126;2022-10-31T11:20:27;22.20;99.90
34492;DHT22;20737;49.908;8.126;2022-10-31T11:23:03;22.00;99.90
34492;DHT22;20737;49.908;8.126;2022-10-31T11:25:30;22.00;99.90
34492;DHT22;20737;49.908;8.126;2022-10-31T11:28:02;21.80;99.90
34492;DHT22;20737;49.908;8.126;2022-10-31T11:30:30;21.50;99.90
34492;DHT22;20737;49.908;8.126;2022-10-31T11:32:59;21.20;99.90
34492;DHT22;20737;49.908;8.126;2022-10-31T11:35:25;21.00;99.90
34492;DHT22;20737;49.908;8.126;2022-10-31T11:37:53;20.90;99.90
34492;DHT22;20737;49.908;8.126;2022-10-31T11:40:23;20.70;99.90
34492;DHT22;20737;49.908;8.126;2022-10-31T11:42:51;20.70;99.90
34492;DHT22;20737;49.908;8.126;2022-10-31T11:45:28;20.50;99.90
34492;DHT22;20737;49.908;8.126;2022-10-31T11:47:58;20.70;99.90
34492;DHT22;20737;49.908;8.126;2022-10-31T11:50:31;21.00;99.90
34492;DHT22;20737;49.908;8.126;2022-10-31T11:53:00;21.40;99.90
34492;DHT22;20737;49.908;8.126;2022-10-31T11:55:33;21.60;99.90
34492;DHT22;20737;49.908;8.126;2022-10-31T11:58:00;22.10;99.90
34492;DHT22;20737;49.908;8.126;2022-10-31T12:00:29;22.40;99.90
34492;DHT22;20737;49.908;8.126;2022-10-31T12:03:14;22.40;99.90
34492;DHT22;20737;49.908;8.126;2022-10-31T12:05:45;22.20;99.90
34492;DHT22;20737;49.908;8.126;2022-10-31T12:08:13;22.10;99.90
34492;DHT22;20737;49.908;8.126;2022-10-31T12:10:48;22.00;99.90
34492;DHT22;20737;49.908;8.126;2022-10-31T12:13:30;22.20;99.90
34492;DHT22;20737;49.908;8.126;2022-10-31T12:16:02;22.20;99.90
34492;DHT22;20737;49.908;8.126;2022-10-31T12:18:48;22.50;99.90
34492;DHT22;20737;49.908;8.126;2022-10-31T12:21:24;23.20;99.90
34492;DHT22;20737;49.908;8.126;2022-10-31T12:24:02;23.20;99.90
34492;DHT22;20737;49.908;8.126;2022-10-31T12:26:36;23.10;99.90
34492;DHT22;20737;49.908;8.126;2022-10-31T12:29:18;23.20;99.90
34492;DHT22;20737;49.908;8.126;2022-10-31T12:31:57;24.00;99.90
34492;DHT22;20737;49.908;8.126;2022-10-31T12:34:45;24.30;99.90
34492;DHT22;20737;49.908;8.126;2022-10-31T12:37:22;24.30;99.90
34492;DHT22;20737;49.908;8.126;2022-10-31T12:40:01;23.80;99.90
34492;DHT22;20737;49.908;8.126;2022-10-31T12:42:43;23.30;99.90
34492;DHT22;20737;49.908;8.126;2022-10-31T12:45:34;22.60;99.90
34492;DHT22;20737;49.908;8.126;2022-10-31T12:51:05;21.40;99.90
34492;DHT22;20737;49.908;8.126;2022-10-31T12:53:44;20.90;99.90
34492;DHT22;20737;49.908;8.126;2022-10-31T12:56:32;20.60;99.90
34492;DHT22;20737;49.908;8.126;2022-10-31T12:59:07;20.30;99.90
34492;DHT22;20737;49.908;8.126;2022-10-31T13:01:38;20.10;99.90
34492;DHT22;20737;49.908;8.126;2022-10-31T13:04:14;19.90;99.90
34492;DHT22;20737;49.908;8.126;2022-10-31T13:06:48;19.60;99.90
34492;DHT22;20737;49.908;8.126;2022-10-31T13:09:18;19.60;99.90
34492;DHT22;20737;49.908;8.126;2022-10-31T13:11:49;19.40;99.90
34492;DHT22;20737;49.908;8.126;2022-10-31T13:14:23;19.40;99.90
34492;DHT22;20737;49.908;8.126;2022-10-31T13:16:51;19.30;99.90
34492;DHT22;20737;49.908;8.126;2022-10-31T13:19:23;19.20;99.90
34492;DHT22;20737;49.908;8.126;2022-10-31T13:21:57;19.20;99.90
34492;DHT22;20737;49.908;8.126;2022-10-31T13:24:31;19.10;99.90
34492;DHT22;20737;49.908;8.126;2022-10-31T13:27:02;19.00;99.90
34492;DHT22;20737;49.908;8.126;2022-10-31T13:29:33;18.90;99.90
34492;DHT22;20737;49.908;8.126;2022-10-31T13:32:03;18.70;99.90
34492;DHT22;20737;49.908;8.126;2022-10-31T13:34:33;18.70;99.90
34492;DHT22;20737;49.908;8.126;2022-10-31T13:37:13;18.60;99.90
34492;DHT22;20737;49.908;8.126;2022-10-31T13:39:50;18.50;99.90
34492;DHT22;20737;49.908;8.126;2022-10-31T13:42:26;18.40;99.90
34492;DHT22;20737;49.908;8.126;2022-10-31T13:45:10;18.40;99.90
34492;DHT22;20737;49.908;8.126;2022-10-31T13:47:37;18.40;99.90
34492;DHT22;20737;49.908;8.126;2022-10-31T13:50:06;18.30;99.90
34492;DHT22;20737;49.908;8.126;2022-10-31T13:52:46;18.20;99.90
34492;DHT22;20737;49.908;8.126;2022-10-31T13:55:35;18.20;99.90
34492;DHT22;20737;49.908;8.126;2022-10-31T13:58:04;18.10;99.90
34492;DHT22;20737;49.908;8.126;2022-10-31T14:00:31;18.00;99.90
34492;DHT22;20737;49.908;8.126;2022-10-31T14:03:01;17.90;99.90
34492;DHT22;20737;49.908;8.126;2022-10-31T14:05:30;17.90;99.90
34492;DHT22;20737;49.908;8.126;2022-10-31T14:08:01;17.90;99.90
34492;DHT22;20737;49.908;8.126;2022-10-31T14:10:31;18.10;99.90
34492;DHT22;20737;49.908;8.126;2022-10-31T14:13:05;18.40;99.90
34492;DHT22;20737;49.908;8.126;2022-10-31T14:15:32;18.90;99.90
34492;DHT22;20737;49.908;8.126;2022-10-31T14:18:01;19.10;99.90
34492;DHT22;20737;49.908;8.126;2022-10-31T14:20:35;19.40;99.90
34492;DHT22;20737;49.908;8.126;2022-10-31T14:23:33;19.70;99.90
34492;DHT22;20737;49.908;8.126;2022-10-31T14:26:29;19.80;99.90
34492;DHT22;20737;49.908;8.126;2022-10-31T14:28:57;19.80;99.90
34492;DHT22;20737;49.908;8.126;2022-10-31T14:31:34;19.60;99.90
34492;DHT22;20737;49.908;8.126;2022-10-31T14:34:15;19.50;99.90
34492;DHT22;20737;49.908;8.126;2022-10-31T14:36:51;19.20;99.90
34492;DHT22;20737;49.908;8.126;2022-10-31T14:39:25;18.80;99.90
34492;DHT22;20737;49.908;8.126;2022-10-31T14:42:04;18.40;99.90
34492;DHT22;20737;49.908;8.126;2022-10-31T14:44:55;18.00;99.90
34492;DHT22;20737;49.908;8.126;2022-10-31T14:47:35;17.60;99.90
34492;DHT22;20737;49.908;8.126;2022-10-31T14:53:00;17.00;99.90
34492;DHT22;20737;49.908;8.126;2022-10-31T14:55:29;16.80;99.90
34492;DHT22;20737;49.908;8.126;2022-10-31T14:57:59;16.60;99.90
34492;DHT22;20737;49.908;8.126;2022-10-31T15:00:28;16.50;99.90
34492;DHT22;20737;49.908;8.126;2022-10-31T15:03:05;16.40;99.90
34492;DHT22;20737;49.908;8.126;2022-10-31T15:05:34;16.30;99.90
34492;DHT22;20737;49.908;8.126;2022-10-31T15:08:14;16.20;99.90
34492;DHT22;20737;49.908;8.126;2022-10-31T15:10:53;16.20;99.90
34492;DHT22;20737;49.908;8.126;2022-10-31T15:13:21;16.20;99.90
34492;DHT22;20737;49.908;8.126;2022-10-31T15:15:49;16.10;99.90
34492;DHT22;20737;49.908;8.126;2022-10-31T15:18:21;16.10;99.90
34492;DHT22;20737;49.908;8.126;2022-10-31T15:20:48;16.10;99.90
34492;DHT22;20737;49.908;8.126;2022-10-31T15:23:20;16.10;99.90
34492;DHT22;20737;49.908;8.126;2022-10-31T15:25:48;16.10;99.90
34492;DHT22;20737;49.908;8.126;2022-10-31T15:28:22;16.10;99.90
34492;DHT22;20737;49.908;8.126;2022-10-31T15:30:50;16.10;99.90
34492;DHT22;20737;49.908;8.126;2022-10-31T15:33:23;16.20;99.90
34492;DHT22;20737;49.908;8.126;2022-10-31T15:35:58;16.20;99.90
34492;DHT22;20737;49.908;8.126;2022-10-31T15:38:26;16.20;99.90
34492;DHT22;20737;49.908;8.126;2022-10-31T15:40:56;16.30;99.90
34492;DHT22;20737;49.908;8.126;2022-10-31T15:43:25;16.30;99.90
34492;DHT22;20737;49.908;8.126;2022-10-31T15:45:59;16.40;99.90
34492;DHT22;20737;49.908;8.126;2022-10-31T15:48:26;16.40;99.90
34492;DHT22;20737;49.908;8.126;2022-10-31T15:50:57;16.40;99.90
34492;DHT22;20737;49.908;8.126;2022-10-31T15:53:35;16.30;99.90
34492;DHT22;20737;49.908;8.126;2022-10-31T15:56:05;16.20;99.90
34492;DHT22;20737;49.908;8.126;2022-10-31T15:58:41;16.10;99.90
34492;DHT22;20737;49.908;8.126;2022-10-31T16:01:21;16.00;99.90
34492;DHT22;20737;49.908;8.126;2022-10-31T16:03:58;15.80;99.90
34492;DHT22;20737;49.908;8.126;2022-10-31T16:06:26;15.70;99.90
34492;DHT22;20737;49.908;8.126;2022-10-31T16:08:52;15.50;99.90
34492;DHT22;20737;49.908;8.126;2022-10-31T16:11:23;15.40;99.90
34492;DHT22;20737;49.908;8.126;2022-10-31T16:13:58;15.20;99.90
34492;DHT22;20737;49.908;8.126;2022-10-31T16:16:26;15.10;99.90